Time;durP1;ratioP1;P1;durP2;ratioP2;P2;SDS_P1;SDS_P2;PMS_P1;PMS_P2;Temp;Humidity;BMP_temperature;BMP_pressure;BME280_temperature;BME280_humidity;BME280_pressure;Samples;Min_cycle;Max_cycle;Signal;HPM_P1;HPM_P2
2023/03/20 16:42:53;;;;;;;18.95;9.18;;;9.30;99.90;;;;;;5122387;27;20330;-60
2023/03/20 16:45:30;;;;;;;18.52;10.05;;;9.30;99.90;;;;;;5127905;28;20027;-59
2023/03/20 16:48:32;;;;;;;16.23;8.45;;;9.30;99.90;;;;;;5118825;28;20016;-59
2023/03/20 16:51:13;;;;;;;16.60;9.25;;;9.40;99.90;;;;;;5114138;28;20030;-60
2023/03/20 16:53:45;;;;;;;22.92;12.73;;;9.50;99.90;;;;;;5115638;28;20056;-60
2023/03/20 16:56:19;;;;;;;21.52;11.80;;;9.60;99.90;;;;;;5106422;28;20494;-60
2023/03/20 16:58:45;;;;;;;20.23;12.52;;;9.60;99.90;;;;;;5107237;28;20020;-60
2023/03/20 17:01:17;;;;;;;17.10;11.45;;;9.70;99.90;;;;;;5123500;28;20039;-57
2023/03/20 17:03:46;;;;;;;24.27;13.65;;;9.70;99.90;;;;;;5126983;28;20079;-60
2023/03/20 17:06:19;;;;;;;41.22;21.42;;;9.70;99.90;;;;;;5127307;27;20073;-61
2023/03/20 17:08:52;;;;;;;40.40;23.20;;;9.80;99.90;;;;;;5127150;28;20035;-60
2023/03/20 17:11:33;;;;;;;37.10;21.42;;;9.80;99.90;;;;;;5126395;28;20034;-60
2023/03/20 17:13:59;;;;;;;32.55;17.30;;;9.80;99.90;;;;;;5119993;28;20027;-61
2023/03/20 17:16:25;;;;;;;28.48;14.85;;;9.80;99.90;;;;;;5106915;28;20081;-60
2023/03/20 17:19:06;;;;;;;30.60;18.02;;;9.80;99.90;;;;;;5105996;28;20024;-60
2023/03/20 17:21:32;;;;;;;28.20;17.83;;;9.80;99.90;;;;;;5106516;28;20032;-60
2023/03/20 17:23:58;;;;;;;35.45;21.83;;;9.80;99.90;;;;;;5110018;28;20022;-59
2023/03/20 17:26:24;;;;;;;39.45;25.33;;;9.80;99.90;;;;;;5126418;28;20633;-60
2023/03/20 17:28:50;;;;;;;42.42;24.58;;;9.80;99.90;;;;;;5109885;28;20480;-60
2023/03/20 17:31:17;;;;;;;40.08;23.13;;;9.90;99.90;;;;;;5105887;28;20031;-58
2023/03/20 17:33:44;;;;;;;38.55;21.73;;;9.90;99.90;;;;;;5105549;28;20023;-59
2023/03/20 17:36:27;;;;;;;42.13;22.25;;;9.90;99.90;;;;;;5105993;28;20050;-61
2023/03/20 17:38:54;;;;;;;33.03;19.35;;;9.90;99.90;;;;;;5106584;28;20081;-59
2023/03/20 17:41:21;;;;;;;30.80;17.65;;;9.90;99.90;;;;;;5104113;28;20036;-60
2023/03/20 17:43:47;;;;;;;28.77;16.50;;;9.90;99.90;;;;;;5106793;28;20123;-59
2023/03/20 17:46:21;;;;;;;28.02;16.27;;;9.90;99.90;;;;;;5105658;28;20047;-62
2023/03/20 17:48:51;;;;;;;26.25;15.23;;;9.90;99.90;;;;;;5108425;28;20106;-61
2023/03/20 17:51:17;;;;;;;20.17;13.00;;;9.90;99.90;;;;;;5107950;28;20012;-62
2023/03/20 17:53:43;;;;;;;18.55;10.70;;;9.90;99.90;;;;;;5096180;28;20036;-61
2023/03/20 17:56:13;;;;;;;19.60;10.25;;;9.90;99.90;;;;;;5093835;28;20494;-58
2023/03/20 17:58:40;;;;;;;15.90;10.23;;;9.90;99.90;;;;;;5094225;28;20102;-62
2023/03/20 18:01:07;;;;;;;16.20;9.38;;;9.90;99.90;;;;;;5099772;28;20086;-60
2023/03/20 18:03:34;;;;;;;15.88;9.98;;;9.90;99.90;;;;;;5094223;28;20373;-61
2023/03/20 18:06:00;;;;;;;21.05;9.43;;;10.00;99.90;;;;;;5093753;28;20499;-61
2023/03/20 18:08:25;;;;;;;14.38;7.45;;;10.00;99.90;;;;;;5093392;28;20099;-60
2023/03/20 18:10:52;;;;;;;17.02;8.30;;;10.00;99.90;;;;;;5097192;28;20092;-61
2023/03/20 18:13:19;;;;;;;14.27;6.65;;;10.00;99.90;;;;;;5093286;28;20109;-60
2023/03/20 18:15:46;;;;;;;15.32;8.20;;;10.00;99.90;;;;;;5093354;28;20081;-60
2023/03/20 18:18:12;;;;;;;11.45;7.03;;;10.00;99.90;;;;;;5093826;28;20059;-60
2023/03/20 18:20:39;;;;;;;14.63;7.25;;;10.00;99.90;;;;;;5091725;28;20044;-60
2023/03/20 18:23:06;;;;;;;13.88;8.70;;;10.00;99.90;;;;;;5093979;28;20469;-60
2023/03/20 18:25:32;;;;;;;13.93;7.43;;;10.00;99.90;;;;;;5102259;28;20578;-60
2023/03/20 18:27:59;;;;;;;14.50;8.20;;;10.10;99.90;;;;;;5092623;28;20502;-60
2023/03/20 18:30:30;;;;;;;16.75;9.80;;;10.00;99.90;;;;;;5093822;28;20032;-60
2023/03/20 18:32:56;;;;;;;13.80;7.03;;;10.00;99.90;;;;;;5090551;28;20028;-62
2023/03/20 18:35:21;;;;;;;14.23;7.55;;;10.00;99.90;;;;;;5091243;28;20028;-61
2023/03/20 18:37:47;;;;;;;13.77;7.78;;;10.00;99.90;;;;;;5091795;28;20519;-61
2023/03/20 18:40:21;;;;;;;11.38;6.63;;;10.10;99.90;;;;;;5091592;28;20024;-61
2023/03/20 18:42:47;;;;;;;12.10;6.93;;;10.00;99.90;;;;;;5090826;28;20047;-60
2023/03/20 18:45:13;;;;;;;14.60;7.60;;;10.10;99.90;;;;;;5091741;28;20021;-59
2023/03/20 18:47:39;;;;;;;15.27;7.00;;;10.10;99.90;;;;;;5090973;28;20028;-61
2023/03/20 18:50:17;;;;;;;16.17;7.80;;;10.10;99.90;;;;;;5090483;28;20019;-60
2023/03/20 18:52:43;;;;;;;13.50;6.80;;;10.10;99.90;;;;;;5090966;28;20085;-60
2023/03/20 18:55:09;;;;;;;18.33;7.75;;;10.10;99.90;;;;;;5091363;28;20765;-62
2023/03/20 18:57:40;;;;;;;17.63;7.68;;;10.10;99.90;;;;;;5091052;28;20024;-60
2023/03/20 19:00:24;;;;;;;17.75;7.30;;;10.10;99.90;;;;;;5089598;28;20079;-61
2023/03/20 19:02:51;;;;;;;15.73;7.65;;;10.10;99.90;;;;;;5088944;28;20040;-60
2023/03/20 19:05:17;;;;;;;15.25;7.80;;;10.10;99.90;;;;;;5100003;28;20020;-58
2023/03/20 19:07:45;;;;;;;15.73;7.28;;;10.00;99.90;;;;;;5102860;28;20036;-60
2023/03/20 19:10:42;;;;;;;12.82;6.53;;;10.10;99.90;;;;;;5090359;28;20094;-60
2023/03/20 19:13:12;;;;;;;15.57;8.55;;;10.10;99.90;;;;;;5090313;28;20024;-60
2023/03/20 19:15:38;;;;;;;18.90;8.23;;;10.10;99.90;;;;;;5090791;28;20040;-61
2023/03/20 19:18:05;;;;;;;16.60;8.15;;;10.10;99.90;;;;;;5088882;28;20051;-60
2023/03/20 19:20:40;;;;;;;16.15;8.10;;;10.20;99.90;;;;;;5089981;28;20020;-60
2023/03/20 19:23:08;;;;;;;12.77;7.07;;;10.10;99.90;;;;;;5090596;28;20028;-60
2023/03/20 19:25:35;;;;;;;16.90;8.88;;;10.10;99.90;;;;;;5089299;28;20032;-61
2023/03/20 19:28:02;;;;;;;18.02;8.27;;;10.10;99.90;;;;;;5090134;28;20510;-60
